createdAt,value
2018-06-14T00:01:22.130Z,13.60
2018-06-14T00:08:49.252Z,13.50
2018-06-14T00:11:18.534Z,13.50
2018-06-14T00:13:47.764Z,13.50
2018-06-14T00:16:17.087Z,13.50
2018-06-14T00:18:46.352Z,12.10
2018-06-14T00:21:15.622Z,13.50
2018-06-14T00:26:13.855Z,13.50
2018-06-14T00:28:43.055Z,13.50
2018-06-14T00:31:12.267Z,13.50
2018-06-14T00:33:41.478Z,13.50
2018-06-14T00:36:10.684Z,13.40
2018-06-14T00:41:08.953Z,13.40
2018-06-14T00:43:38.206Z,13.40
2018-06-14T00:46:07.402Z,13.50
2018-06-14T00:48:36.680Z,13.50
2018-06-14T00:51:05.870Z,13.50
2018-06-14T00:53:35.087Z,13.50
2018-06-14T00:56:04.380Z,13.50
2018-06-14T00:58:33.623Z,13.50
2018-06-14T01:01:02.847Z,13.50
2018-06-14T01:03:32.119Z,13.50
2018-06-14T01:06:01.335Z,13.50
2018-06-14T01:08:30.764Z,13.50
2018-06-14T01:11:00.375Z,13.40
2018-06-14T01:13:29.707Z,13.40
2018-06-14T01:15:58.922Z,13.40
2018-06-14T01:18:28.166Z,13.40
2018-06-14T01:20:57.398Z,13.40
2018-06-14T01:23:26.667Z,13.30
2018-06-14T01:25:55.872Z,13.20
2018-06-14T01:28:25.103Z,13.20
2018-06-14T01:30:54.338Z,13.20
2018-06-14T01:33:23.574Z,13.20
2018-06-14T01:35:52.816Z,13.20
2018-06-14T01:38:26.398Z,13.20
2018-06-14T01:40:55.904Z,13.20
2018-06-14T01:43:25.214Z,13.20
2018-06-14T01:45:54.483Z,13.30
2018-06-14T01:48:23.726Z,13.30
2018-06-14T01:50:52.966Z,13.20
2018-06-14T01:55:51.198Z,13.20
2018-06-14T01:58:20.443Z,13.10
2018-06-14T02:00:49.675Z,13.20
2018-06-14T02:03:18.948Z,13.20
2018-06-14T02:05:48.190Z,13.10
2018-06-14T02:08:17.428Z,13.10
2018-06-14T02:10:46.666Z,13.10
2018-06-14T02:13:15.935Z,13.10
2018-06-14T02:15:45.219Z,13.10
2018-06-14T02:18:14.457Z,13.10
2018-06-14T02:20:43.684Z,13.00
2018-06-14T02:23:12.922Z,13.00
2018-06-14T02:25:42.180Z,12.90
2018-06-14T02:28:11.390Z,12.90
2018-06-14T02:30:40.687Z,12.90
2018-06-14T02:33:09.929Z,12.90
2018-06-14T02:35:39.168Z,12.90
2018-06-14T02:38:08.410Z,12.80
2018-06-14T02:40:37.648Z,12.90
2018-06-14T02:43:06.863Z,12.80
2018-06-14T02:45:36.103Z,12.80
2018-06-14T02:48:05.642Z,12.80
2018-06-14T02:50:34.906Z,12.80
2018-06-14T02:53:04.209Z,12.70
2018-06-14T02:58:02.572Z,12.70
2018-06-14T03:00:31.831Z,12.70
2018-06-14T03:03:01.162Z,12.70
2018-06-14T03:05:30.385Z,12.70
2018-06-14T03:07:59.591Z,12.70
2018-06-14T03:10:29.803Z,12.70
2018-06-14T03:12:59.031Z,12.70
2018-06-14T03:15:28.299Z,12.80
2018-06-14T03:17:57.555Z,12.70
2018-06-14T03:20:28.255Z,12.70
2018-06-14T03:22:58.070Z,12.70
2018-06-14T03:25:27.299Z,12.70
2018-06-14T03:27:56.587Z,12.70
2018-06-14T03:30:25.800Z,12.70
2018-06-14T03:32:55.175Z,12.70
2018-06-14T03:35:24.405Z,12.80
2018-06-14T03:37:53.641Z,12.80
2018-06-14T03:40:22.874Z,12.80
2018-06-14T03:42:52.118Z,12.80
2018-06-14T03:45:22.210Z,12.80
2018-06-14T03:47:51.860Z,12.80
2018-06-14T03:50:21.082Z,12.80
2018-06-14T03:52:50.316Z,12.80
2018-06-14T03:55:19.600Z,12.90
2018-06-14T03:57:48.822Z,13.00
2018-06-14T04:00:18.092Z,13.00
2018-06-14T04:02:47.379Z,13.00
2018-06-14T04:05:16.679Z,13.00
2018-06-14T04:07:45.989Z,13.10
2018-06-14T04:10:15.266Z,13.10
2018-06-14T04:12:44.473Z,13.20
2018-06-14T04:15:13.760Z,13.20
2018-06-14T04:17:43.028Z,13.20
2018-06-14T04:20:12.238Z,13.30
2018-06-14T04:22:41.460Z,13.30
2018-06-14T04:25:10.678Z,13.30
2018-06-14T04:27:39.914Z,13.30
2018-06-14T04:30:09.134Z,13.40
2018-06-14T04:32:38.359Z,13.50
2018-06-14T04:35:07.571Z,13.50
2018-06-14T04:37:36.914Z,13.50
2018-06-14T04:40:06.226Z,13.60
2018-06-14T04:42:35.468Z,13.70
2018-06-14T04:45:04.678Z,13.80
2018-06-14T04:47:33.914Z,13.90
2018-06-14T04:50:03.170Z,13.90
2018-06-14T04:52:32.439Z,14.00
2018-06-14T04:55:01.679Z,14.20
2018-06-14T04:57:30.935Z,14.20
2018-06-14T05:00:00.193Z,14.30
2018-06-14T05:02:29.471Z,14.30
2018-06-14T05:04:58.695Z,14.40
2018-06-14T05:07:27.911Z,14.50
2018-06-14T05:09:57.163Z,14.60
2018-06-14T05:12:26.425Z,14.60
2018-06-14T05:14:55.652Z,14.70
2018-06-14T05:17:24.898Z,14.80
2018-06-14T05:19:54.078Z,14.80
2018-06-14T05:22:23.338Z,15.00
2018-06-14T05:24:52.554Z,15.00
2018-06-14T05:27:21.759Z,15.00
2018-06-14T05:29:50.995Z,15.00
2018-06-14T05:32:20.254Z,15.20
2018-06-14T05:34:49.487Z,15.30
2018-06-14T05:37:18.959Z,15.40
2018-06-14T05:39:48.254Z,15.50
2018-06-14T05:42:17.530Z,15.60
2018-06-14T05:44:46.859Z,15.60
2018-06-14T05:47:16.187Z,15.70
2018-06-14T05:49:45.558Z,15.70
2018-06-14T05:52:14.812Z,15.60
2018-06-14T05:54:44.070Z,15.60
2018-06-14T05:57:13.275Z,15.70
2018-06-14T05:59:42.492Z,15.80
2018-06-14T06:02:11.698Z,15.90
2018-06-14T06:04:40.987Z,16.00
2018-06-14T06:07:10.163Z,16.10
2018-06-14T06:09:39.366Z,16.10
2018-06-14T06:12:08.614Z,16.30
2018-06-14T06:14:37.911Z,16.40
2018-06-14T06:17:07.101Z,16.30
2018-06-14T06:19:36.334Z,16.40
2018-06-14T06:22:05.529Z,16.60
2018-06-14T06:24:34.786Z,16.60
2018-06-14T06:27:04.029Z,16.90
2018-06-14T06:29:33.241Z,17.10
2018-06-14T06:32:02.482Z,17.30
2018-06-14T06:34:31.742Z,17.50
2018-06-14T06:37:00.959Z,17.70
2018-06-14T06:39:30.170Z,18.00
2018-06-14T06:41:59.487Z,18.30
2018-06-14T06:44:28.710Z,18.60
2018-06-14T06:46:58.019Z,18.70
2018-06-14T06:49:27.248Z,18.80
2018-06-14T06:51:56.527Z,18.80
2018-06-14T06:56:54.758Z,18.80
2018-06-14T06:59:23.995Z,18.70
2018-06-14T07:01:53.221Z,19.00
2018-06-14T07:04:22.435Z,19.10
2018-06-14T07:06:51.730Z,19.00
2018-06-14T07:09:21.002Z,18.90
2018-06-14T07:11:50.379Z,18.80
2018-06-14T07:14:19.592Z,18.70
2018-06-14T07:16:48.826Z,18.60
2018-06-14T07:19:18.022Z,18.60
2018-06-14T07:21:47.283Z,18.70
2018-06-14T07:24:16.512Z,18.80
2018-06-14T07:26:45.808Z,18.90
2018-06-14T07:29:15.060Z,18.80
2018-06-14T07:31:44.383Z,18.80
2018-06-14T07:34:13.597Z,18.70
2018-06-14T07:36:42.843Z,18.40
2018-06-14T07:39:13.045Z,18.40
2018-06-14T07:41:42.267Z,18.30
2018-06-14T07:44:11.484Z,18.20
2018-06-14T07:46:40.725Z,18.10
2018-06-14T07:49:09.910Z,17.90
2018-06-14T07:51:39.127Z,17.90
2018-06-14T07:54:08.370Z,17.80
2018-06-14T07:56:37.527Z,17.90
2018-06-14T07:59:06.730Z,17.80
2018-06-14T08:01:35.966Z,17.80
2018-06-14T08:04:05.155Z,17.90
2018-06-14T08:06:34.480Z,17.70
2018-06-14T08:09:04.911Z,17.80
2018-06-14T08:11:34.077Z,18.10
2018-06-14T08:14:03.601Z,18.40
2018-06-14T08:16:32.844Z,18.50
2018-06-14T08:19:02.198Z,18.70
2018-06-14T08:21:31.393Z,18.20
2018-06-14T08:24:00.654Z,18.80
2018-06-14T08:26:29.868Z,18.90
2018-06-14T08:28:59.058Z,19.00
2018-06-14T08:31:28.295Z,19.00
2018-06-14T08:33:57.534Z,18.90
2018-06-14T08:36:26.748Z,19.10
2018-06-14T08:38:56.238Z,19.10
2018-06-14T08:41:25.691Z,19.40
2018-06-14T08:43:54.931Z,19.70
2018-06-14T08:46:24.154Z,20.00
2018-06-14T08:48:53.367Z,20.40
2018-06-14T08:51:22.568Z,20.50
2018-06-14T08:53:51.804Z,20.80
2018-06-14T08:56:21.049Z,20.70
2018-06-14T08:58:50.285Z,20.60
2018-06-14T09:01:19.570Z,20.50
2018-06-14T09:03:48.819Z,20.20
2018-06-14T09:06:18.122Z,20.40
2018-06-14T09:08:47.372Z,20.50
2018-06-14T09:11:16.670Z,20.70
2018-06-14T09:13:45.987Z,20.50
2018-06-14T09:16:15.274Z,20.50
2018-06-14T09:21:13.513Z,20.30
2018-06-14T09:23:42.879Z,20.10
2018-06-14T09:26:12.081Z,19.70
2018-06-14T09:28:41.306Z,20.10
2018-06-14T09:31:10.523Z,19.60
2018-06-14T09:33:39.828Z,19.70
2018-06-14T09:36:08.985Z,19.70
2018-06-14T09:38:38.201Z,19.90
2018-06-14T09:41:07.404Z,20.10
2018-06-14T09:43:36.649Z,20.10
2018-06-14T09:46:05.858Z,20.40
2018-06-14T09:48:35.126Z,20.60
2018-06-14T09:51:04.375Z,20.70
2018-06-14T09:53:33.593Z,20.80
2018-06-14T09:56:02.862Z,21.00
2018-06-14T09:58:32.108Z,21.30
2018-06-14T10:01:01.434Z,21.50
2018-06-14T10:03:30.605Z,21.60
2018-06-14T10:06:00.322Z,21.60
2018-06-14T10:08:29.525Z,21.50
2018-06-14T10:10:58.721Z,21.40
2018-06-14T10:13:27.928Z,21.40
2018-06-14T10:15:57.071Z,21.60
2018-06-14T10:18:26.576Z,21.90
2018-06-14T10:20:55.816Z,22.10
2018-06-14T10:23:25.025Z,22.00
2018-06-14T10:25:54.211Z,22.10
2018-06-14T10:28:23.446Z,21.60
2018-06-14T10:30:52.668Z,21.70
2018-06-14T10:33:21.788Z,22.20
2018-06-14T10:35:51.006Z,22.10
2018-06-14T10:38:20.296Z,22.10
2018-06-14T10:40:49.558Z,22.30
2018-06-14T10:43:18.814Z,22.10
2018-06-14T10:45:48.238Z,23.10
2018-06-14T10:48:17.473Z,22.30
2018-06-14T10:50:46.864Z,22.60
2018-06-14T10:53:16.511Z,22.60
2018-06-14T10:55:45.808Z,22.70
2018-06-14T10:58:15.045Z,22.70
2018-06-14T11:00:44.428Z,22.90
2018-06-14T11:03:13.620Z,22.50
2018-06-14T11:05:42.856Z,22.30
2018-06-14T11:08:11.997Z,22.50
2018-06-14T11:10:41.291Z,22.60
2018-06-14T11:13:10.570Z,22.30
2018-06-14T11:18:08.942Z,21.10
2018-06-14T11:20:38.409Z,20.70
2018-06-14T11:23:07.745Z,20.30
2018-06-14T11:25:37.103Z,20.10
2018-06-14T11:28:06.520Z,20.10
2018-06-14T11:30:35.889Z,20.30
2018-06-14T11:33:05.372Z,20.50
2018-06-14T11:38:03.684Z,21.10
2018-06-14T11:40:32.940Z,20.90
2018-06-14T11:43:02.204Z,20.80
2018-06-14T11:45:31.531Z,20.70
2018-06-14T11:48:00.892Z,20.90
2018-06-14T11:50:30.190Z,21.60
2018-06-14T11:52:59.473Z,21.80
2018-06-14T11:55:28.761Z,21.90
2018-06-14T11:57:58.087Z,21.70
2018-06-14T12:00:27.391Z,21.80
2018-06-14T12:02:56.794Z,21.90
2018-06-14T12:05:26.043Z,22.30
2018-06-14T12:07:55.434Z,22.60
2018-06-14T12:10:24.791Z,22.50
2018-06-14T12:12:54.059Z,22.20
2018-06-14T12:15:23.347Z,22.30
2018-06-14T12:17:52.704Z,22.40
2018-06-14T12:20:22.059Z,22.50
2018-06-14T12:22:51.331Z,22.50
2018-06-14T12:25:20.720Z,22.20
2018-06-14T12:27:50.077Z,21.90
2018-06-14T12:30:19.370Z,21.70
2018-06-14T12:32:48.992Z,21.40
2018-06-14T12:37:47.550Z,21.20
2018-06-14T12:40:16.962Z,21.20
2018-06-14T12:42:46.315Z,21.40
2018-06-14T12:45:15.732Z,21.90
2018-06-14T12:47:45.170Z,22.30
2018-06-14T12:50:14.516Z,22.20
2018-06-14T12:52:43.847Z,22.00
2018-06-14T12:55:13.230Z,21.90
2018-06-14T12:57:42.583Z,21.70
2018-06-14T13:00:11.859Z,21.20
2018-06-14T13:02:41.183Z,20.90
2018-06-14T13:07:39.455Z,21.00
2018-06-14T13:10:08.768Z,21.10
2018-06-14T13:12:38.183Z,21.20
2018-06-14T13:15:07.549Z,21.30
2018-06-14T13:17:36.942Z,21.40
2018-06-14T13:20:06.299Z,21.40
2018-06-14T13:22:35.526Z,21.60
2018-06-14T13:25:04.768Z,21.80
2018-06-14T13:27:33.986Z,21.90
2018-06-14T13:30:03.391Z,22.00
2018-06-14T13:32:32.687Z,22.10
2018-06-14T13:35:01.966Z,20.90
2018-06-14T13:37:31.233Z,22.40
2018-06-14T13:40:00.759Z,22.50
2018-06-14T13:42:30.028Z,22.60
2018-06-14T13:44:59.330Z,22.60
2018-06-14T13:47:28.598Z,22.60
2018-06-14T13:49:58.030Z,22.40
2018-06-14T13:52:27.300Z,22.30
2018-06-14T13:54:56.589Z,22.50
2018-06-14T13:57:25.839Z,22.70
2018-06-14T13:59:55.125Z,22.50
2018-06-14T14:02:24.365Z,22.60
2018-06-14T14:04:53.696Z,22.60
2018-06-14T14:07:27.034Z,22.70
2018-06-14T14:09:57.703Z,22.60
2018-06-14T14:12:27.704Z,22.70
2018-06-14T14:14:57.457Z,22.90
2018-06-14T14:17:26.716Z,23.10
2018-06-14T14:19:56.043Z,23.30
2018-06-14T14:22:25.350Z,23.40
2018-06-14T14:27:23.770Z,23.50
2018-06-14T14:29:53.142Z,23.60
2018-06-14T14:32:22.415Z,23.40
2018-06-14T14:34:51.670Z,23.10
2018-06-14T14:37:21.072Z,22.90
2018-06-14T14:39:50.427Z,23.00
2018-06-14T14:42:19.786Z,23.00
2018-06-14T14:44:49.179Z,22.90
2018-06-14T14:47:18.519Z,23.20
2018-06-14T14:49:47.949Z,23.30
2018-06-14T14:52:17.409Z,23.20
2018-06-14T14:54:46.788Z,23.10
2018-06-14T14:57:16.231Z,23.20
2018-06-14T14:59:45.649Z,23.20
2018-06-14T15:02:15.011Z,23.30
2018-06-14T15:04:44.436Z,23.30
2018-06-14T15:07:13.722Z,23.30
2018-06-14T15:09:43.031Z,23.10
2018-06-14T15:12:12.304Z,23.00
2018-06-14T15:14:41.602Z,22.80
2018-06-14T15:17:10.855Z,22.50
2018-06-14T15:19:40.150Z,22.40
2018-06-14T15:22:09.481Z,22.30
2018-06-14T15:24:38.926Z,22.30
2018-06-14T15:27:08.288Z,22.40
2018-06-14T15:29:37.858Z,22.20
2018-06-14T15:34:36.325Z,21.90
2018-06-14T15:37:05.655Z,21.90
2018-06-14T15:39:35.020Z,21.80
2018-06-14T15:42:04.374Z,21.80
2018-06-14T15:44:33.853Z,21.80
2018-06-14T15:47:03.193Z,21.90
2018-06-14T15:49:32.525Z,22.00
2018-06-14T15:52:01.761Z,22.10
2018-06-14T15:54:31.241Z,22.20
2018-06-14T15:57:00.535Z,22.20
2018-06-14T15:59:29.868Z,22.20
2018-06-14T16:01:59.193Z,22.10
2018-06-14T16:04:28.526Z,22.10
2018-06-14T16:06:57.801Z,22.00
2018-06-14T16:09:27.115Z,22.00
2018-06-14T16:11:56.520Z,22.00
2018-06-14T16:17:00.401Z,21.90
2018-06-14T16:19:29.695Z,21.90
2018-06-14T16:21:58.975Z,21.90
2018-06-14T16:24:28.255Z,22.00
2018-06-14T16:26:57.517Z,22.00
2018-06-14T16:29:26.814Z,21.80
2018-06-14T16:31:56.135Z,21.60
2018-06-14T16:34:25.431Z,21.60
2018-06-14T16:36:54.746Z,21.60
2018-06-14T16:39:24.066Z,21.80
2018-06-14T16:41:54.658Z,21.80
2018-06-14T16:44:25.984Z,21.80
2018-06-14T16:46:55.283Z,21.70
2018-06-14T16:49:24.585Z,21.80
2018-06-14T16:51:53.894Z,22.10
2018-06-14T16:54:23.154Z,22.40
2018-06-14T16:56:52.406Z,22.80
2018-06-14T16:59:21.740Z,23.10
2018-06-14T17:01:51.139Z,23.60
2018-06-14T17:04:20.362Z,24.00
2018-06-14T17:06:49.653Z,24.20
2018-06-14T17:09:18.909Z,24.40
2018-06-14T17:11:48.162Z,24.20
2018-06-14T17:14:17.468Z,24.10
2018-06-14T17:16:46.652Z,24.00
2018-06-14T17:21:44.881Z,23.80
2018-06-14T17:24:14.214Z,23.30
2018-06-14T17:26:43.490Z,22.80
2018-06-14T17:29:12.707Z,22.30
2018-06-14T17:31:41.906Z,21.80
2018-06-14T17:34:11.614Z,21.40
2018-06-14T17:36:40.907Z,21.20
2018-06-14T17:39:10.154Z,21.00
2018-06-14T17:41:39.428Z,20.60
2018-06-14T17:44:08.723Z,20.40
2018-06-14T17:46:37.908Z,20.20
2018-06-14T17:49:07.061Z,20.10
2018-06-14T17:51:36.262Z,19.90
2018-06-14T17:54:05.475Z,19.80
2018-06-14T17:56:34.710Z,19.60
2018-06-14T17:59:03.918Z,19.60
2018-06-14T18:01:33.161Z,19.40
2018-06-14T18:04:02.480Z,19.30
2018-06-14T18:06:31.735Z,19.30
2018-06-14T18:09:01.009Z,19.20
2018-06-14T18:11:30.245Z,19.10
2018-06-14T18:13:59.600Z,19.10
2018-06-14T18:16:28.851Z,19.10
2018-06-14T18:18:58.110Z,19.00
2018-06-14T18:21:27.344Z,18.80
2018-06-14T18:23:56.574Z,18.80
2018-06-14T18:26:25.797Z,18.80
2018-06-14T18:28:55.025Z,18.80
2018-06-14T18:31:24.284Z,18.70
2018-06-14T18:33:53.747Z,18.70
2018-06-14T18:36:23.054Z,18.50
2018-06-14T18:38:52.283Z,18.40
2018-06-14T18:41:21.552Z,18.30
2018-06-14T18:43:50.830Z,18.30
2018-06-14T18:46:20.139Z,18.20
2018-06-14T18:48:49.381Z,18.10
2018-06-14T18:51:18.634Z,18.00
2018-06-14T18:53:48.091Z,17.90
2018-06-14T18:56:17.473Z,17.80
2018-06-14T18:58:46.710Z,17.60
2018-06-14T19:01:17.161Z,17.60
2018-06-14T19:03:46.387Z,17.50
2018-06-14T19:06:15.653Z,17.50
2018-06-14T19:08:44.872Z,17.40
2018-06-14T19:11:14.155Z,17.30
2018-06-14T19:18:48.392Z,16.90
2018-06-14T19:21:17.788Z,16.80
2018-06-14T19:23:47.075Z,16.70
2018-06-14T19:26:16.617Z,16.60
2018-06-14T19:28:45.900Z,16.40
2018-06-14T19:33:44.287Z,16.30
2018-06-14T19:36:13.612Z,16.30
2018-06-14T19:38:42.988Z,16.20
2018-06-14T19:41:12.234Z,16.20
2018-06-14T19:43:41.592Z,16.10
2018-06-14T19:46:10.936Z,16.00
2018-06-14T19:48:40.282Z,16.00
2018-06-14T19:51:10.584Z,15.90
2018-06-14T19:53:39.798Z,15.80
2018-06-14T19:56:10.123Z,15.70
2018-06-14T19:58:39.555Z,15.70
2018-06-14T20:01:08.894Z,15.50
2018-06-14T20:03:38.138Z,15.50
2018-06-14T20:06:07.391Z,15.40
2018-06-14T20:08:36.643Z,15.30
2018-06-14T20:11:05.974Z,15.20
2018-06-14T20:13:35.274Z,15.10
2018-06-14T20:16:04.923Z,15.00
2018-06-14T20:18:34.164Z,14.90
2018-06-14T20:21:03.477Z,14.80
2018-06-14T20:23:32.697Z,14.70
2018-06-14T20:26:02.113Z,14.70
2018-06-14T20:28:31.370Z,14.70
2018-06-14T20:31:00.663Z,14.60
2018-06-14T20:33:29.931Z,14.50
2018-06-14T20:35:59.070Z,14.50
2018-06-14T20:38:28.396Z,14.50
2018-06-14T20:40:57.699Z,14.50
2018-06-14T20:43:26.926Z,14.50
2018-06-14T20:48:25.249Z,14.40
2018-06-14T20:50:54.462Z,14.30
2018-06-14T20:53:23.755Z,14.20
2018-06-14T20:55:53.184Z,14.20
2018-06-14T20:58:22.439Z,14.20
2018-06-14T21:00:51.691Z,14.20
2018-06-14T21:03:21.018Z,14.20
2018-06-14T21:05:50.217Z,14.30
2018-06-14T21:08:19.650Z,14.30
2018-06-14T21:10:48.929Z,14.20
2018-06-14T21:13:18.216Z,14.20
2018-06-14T21:15:48.628Z,14.10
2018-06-14T21:18:17.965Z,14.10
2018-06-14T21:20:47.271Z,14.10
2018-06-14T21:23:16.591Z,14.00
2018-06-14T21:25:45.943Z,14.00
2018-06-14T21:28:15.203Z,14.00
2018-06-14T21:30:44.784Z,13.90
2018-06-14T21:33:14.159Z,14.00
2018-06-14T21:35:43.422Z,13.90
2018-06-14T21:38:12.639Z,13.90
2018-06-14T21:40:41.861Z,13.90
2018-06-14T21:43:11.092Z,14.00
2018-06-14T21:45:40.339Z,13.90
2018-06-14T21:48:09.627Z,14.00
2018-06-14T21:50:38.846Z,13.90
2018-06-14T21:53:08.099Z,13.90
2018-06-14T21:55:37.370Z,13.90
2018-06-14T21:58:06.631Z,13.90
2018-06-14T22:00:35.925Z,13.90
2018-06-14T22:03:10.383Z,13.80
2018-06-14T22:05:39.628Z,13.80
2018-06-14T22:08:08.855Z,13.80
2018-06-14T22:10:38.090Z,13.80
2018-06-14T22:13:07.299Z,13.80
2018-06-14T22:15:36.573Z,13.80
2018-06-14T22:18:05.859Z,13.80
2018-06-14T22:20:35.203Z,13.80
2018-06-14T22:23:04.473Z,13.80
2018-06-14T22:25:33.707Z,13.80
2018-06-14T22:28:02.962Z,13.80
2018-06-14T22:30:32.224Z,13.80
2018-06-14T22:34:15.962Z,13.80
2018-06-14T22:36:45.252Z,13.70
2018-06-14T22:39:14.542Z,13.70
2018-06-14T22:41:43.803Z,13.80
2018-06-14T22:44:13.070Z,13.70
2018-06-14T22:52:51.144Z,13.70
2018-06-14T22:55:21.723Z,13.60
2018-06-14T22:57:51.118Z,13.70
2018-06-14T23:01:28.300Z,13.70
2018-06-14T23:03:58.430Z,13.70
2018-06-14T23:06:27.674Z,13.70
2018-06-14T23:08:57.094Z,13.70
2018-06-14T23:11:26.346Z,13.70
2018-06-14T23:13:55.637Z,13.70
2018-06-14T23:16:24.954Z,13.70
2018-06-14T23:18:54.206Z,13.70
2018-06-14T23:21:23.490Z,13.60
2018-06-14T23:23:52.729Z,13.60
2018-06-14T23:26:22.015Z,13.60
2018-06-14T23:28:51.255Z,13.60
2018-06-14T23:31:20.548Z,13.60
2018-06-14T23:33:49.795Z,13.60
2018-06-14T23:36:19.033Z,13.50
2018-06-14T23:38:48.342Z,13.50
2018-06-14T23:41:17.574Z,13.50
2018-06-14T23:43:46.846Z,13.60
2018-06-14T23:46:16.151Z,13.50
2018-06-14T23:48:47.542Z,13.40
2018-06-14T23:51:16.764Z,13.50
2018-06-14T23:53:46.021Z,13.40
2018-06-14T23:56:15.287Z,13.40
2018-06-14T23:58:44.594Z,13.40
